Lebanon, VA

8:52 PM EDT on October 24, 2014 (GMT -0400)
Tri-Cities Regional Tennessee / Virginia | Change Station
CLOSE
Current Station
Airport
Location: Tri-Cities,
Elevation: 1519 ft
Nearby Weather Stations

Elev 1519 ft 36.48 °N, 82.40 °W | Updated 59 minutes ago

Clear
Clear
51 °F
Feels Like 51 °F
N
0
Wind Variable Wind from North

Today
High -- | Low -- °F
--% Chance of Precip.
Yesterday
High -- | Low -- °F
Precip. -- in
7:44 AM 6:40 PM
New Moon, 1% visible
Pressure 30.05 in
Visibility 10.0 miles
Clouds Few 10000 ft
Dew Point 42 °F
Humidity 71%
Rainfall 0.00 in
Snow Depth Not available.
UV 0 out of 12
Pollen .80 out of 12
Air Quality Not available.
Flu Activity Sporadic
METAR KTRI 242353Z 00000KT 10SM FEW100 11/06 A3007 RMK AO2 SLP174 T01060056 10183 20106 53008

More Conditions Fewer Conditions

Pressure 30.05 in
Visibility 10.0 miles
Clouds Few 10000 ft
Dew Point 42 °F
Humidity 71%
Rainfall 0.00 in
Snow Depth Not available.
UV 0 out of 12
Pollen .80 out of 12
Air Quality Not available.
Flu Activity Sporadic
METAR KTRI 242353Z 00000KT 10SM FEW100 11/06 A3007 RMK AO2 SLP174 T01060056 10183 20106 53008

More Conditions Fewer Conditions

10-Day Weather Forecast

Almanac

Astronomy

Oct. 24, 2014 Rise Set
Actual Time 7:44 AM EDT 6:40 PM EDT
Civil Twilight 7:17 AM EDT 7:06 PM EDT
Nautical Twilight 6:47 AM EDT 7:36 PM EDT
Astronomical Twilight 6:17 AM EDT 8:06 PM EDT
Moon 8:21 AM EDT (10/24) 7:20 PM EDT (10/24)
Length of Visible Light 11h 48m
Length of Day
10h 55m
Tomorrow will be 2m 10s shorter.
New Moon, 1% of the Moon is Illuminated
Today
New Moon
Oct 30
First Quarter
Nov 6
Full
Nov 14
Last Quarter
Nov 22
New

Today's Extremes

State Highs State Lows

Community

WunderPhotos

Upload Photos

1,764,735 photos uploaded!

WunderBlogs® & News

Nearby

Snow Depth

Station Depth Elevation
No new snow has been reported.

Earthquake Activity

City Distance Mag. Time & Date
No recent earthquake activity has been reported nearby.
Minimum magnitude displayed is 2.5.

Coastal Water Temperatures

Place Temperature
No Stations Reporting

Nearby Weather Stations